Time;durP1;ratioP1;P1;durP2;ratioP2;P2;SDS_P1;SDS_P2;PMS_P1;PMS_P2;Temp;Humidity;BMP_temperature;BMP_pressure;BME280_temperature;BME280_humidity;BME280_pressure;Samples;Min_cycle;Max_cycle;Signal;HPM_P1;HPM_P2
2022/06/02 00:00:12;;;;;;;0.60;0.60;;;17.10;99.90;;;;;;5042942;28;20232;-62
2022/06/02 00:03:03;;;;;;;0.70;0.70;;;17.10;99.90;;;;;;5049236;28;20222;-63
2022/06/02 00:05:50;;;;;;;0.57;0.57;;;17.00;99.90;;;;;;5044719;28;20295;-62
2022/06/02 00:08:25;;;;;;;0.65;0.65;;;16.90;99.90;;;;;;5039196;28;20220;-62
2022/06/02 00:11:01;;;;;;;0.70;0.70;;;16.90;99.90;;;;;;5048069;28;20208;-61
2022/06/02 00:13:35;;;;;;;0.70;0.70;;;16.90;99.90;;;;;;5057880;28;20677;-62
2022/06/02 00:16:08;;;;;;;0.60;0.60;;;16.80;99.90;;;;;;5048817;28;20262;-62
2022/06/02 00:18:40;;;;;;;0.60;0.60;;;16.70;99.90;;;;;;5043803;28;20259;-62
2022/06/02 00:21:22;;;;;;;0.60;0.60;;;16.70;99.90;;;;;;5045277;28;20689;-63
2022/06/02 00:23:57;;;;;;;0.50;0.50;;;16.70;99.90;;;;;;5041427;28;20291;-62
2022/06/02 00:26:39;;;;;;;0.60;0.60;;;16.70;99.90;;;;;;5049075;28;20339;-61
2022/06/02 00:29:17;;;;;;;0.50;0.50;;;16.60;99.90;;;;;;5051303;28;20281;-63
2022/06/02 00:31:52;;;;;;;0.60;0.60;;;16.60;99.90;;;;;;5047971;28;20204;-62
2022/06/02 00:34:27;;;;;;;0.50;0.50;;;16.50;99.90;;;;;;5049609;28;20290;-61
2022/06/02 00:37:06;;;;;;;0.70;0.70;;;16.50;99.90;;;;;;5052573;28;20222;-62
2022/06/02 00:39:35;;;;;;;0.60;0.40;;;16.40;99.90;;;;;;5049200;28;20224;-62
2022/06/02 00:42:11;;;;;;;0.60;0.60;;;16.30;99.90;;;;;;5051984;28;20208;-62
2022/06/02 00:44:49;;;;;;;0.57;0.57;;;16.30;99.90;;;;;;5048625;28;20204;-62
2022/06/02 00:47:42;;;;;;;0.60;0.60;;;16.30;99.90;;;;;;5051979;28;20291;-63
2022/06/02 00:50:13;;;;;;;0.63;0.63;;;16.20;99.90;;;;;;5049661;28;20224;-63
2022/06/02 00:52:51;;;;;;;0.60;0.60;;;16.20;99.90;;;;;;5052523;28;20200;-62
2022/06/02 00:58:25;;;;;;;0.60;0.60;;;16.10;99.90;;;;;;5040442;28;20226;-62
2022/06/02 01:01:01;;;;;;;0.47;0.47;;;16.10;99.90;;;;;;5037972;28;20736;-63
2022/06/02 01:03:38;;;;;;;0.40;0.40;;;16.00;99.90;;;;;;5044147;28;20203;-62
2022/06/02 01:06:24;;;;;;;0.70;0.70;;;16.10;99.90;;;;;;5041993;28;20204;-63
2022/06/02 01:09:13;;;;;;;0.50;0.50;;;16.00;99.90;;;;;;5047689;28;20220;-63
2022/06/02 01:11:55;;;;;;;0.40;0.40;;;16.10;99.90;;;;;;5046516;28;20229;-63
2022/06/02 01:14:40;;;;;;;0.47;0.47;;;16.10;99.90;;;;;;5042173;28;20196;-62
2022/06/02 01:17:16;;;;;;;0.38;0.38;;;16.00;99.90;;;;;;5047717;28;20197;-63
2022/06/02 01:20:08;;;;;;;0.47;0.47;;;16.10;99.90;;;;;;5040869;28;20267;-63
2022/06/02 01:23:23;;;;;;;0.70;0.70;;;16.10;99.90;;;;;;5041343;28;20211;-63
2022/06/02 01:26:21;;;;;;;0.60;0.60;;;16.00;99.90;;;;;;4943795;29;20208;-63
2022/06/02 01:28:59;;;;;;;0.60;0.60;;;15.90;99.90;;;;;;4924461;29;20316;-63
2022/06/02 01:31:40;;;;;;;0.57;0.57;;;15.80;99.90;;;;;;4945814;29;20243;-63
2022/06/02 01:34:19;;;;;;;0.38;0.38;;;15.80;99.90;;;;;;4945409;29;20509;-63
2022/06/02 01:36:51;;;;;;;0.60;0.60;;;15.80;99.90;;;;;;4946328;29;20215;-62
2022/06/02 01:39:30;;;;;;;0.40;0.40;;;15.70;99.90;;;;;;4942302;29;20303;-63
2022/06/02 01:42:08;;;;;;;0.60;0.60;;;15.70;99.90;;;;;;4951219;29;20222;-62
2022/06/02 01:44:44;;;;;;;0.50;0.50;;;15.60;99.90;;;;;;4944518;29;20601;-62
2022/06/02 01:47:19;;;;;;;0.50;0.50;;;15.60;99.90;;;;;;4939672;29;20199;-62
2022/06/02 01:50:03;;;;;;;0.60;0.60;;;15.70;99.90;;;;;;4944223;29;20236;-63
2022/06/02 01:52:45;;;;;;;0.60;0.60;;;15.70;99.90;;;;;;4956464;29;20265;-64
2022/06/02 01:55:38;;;;;;;0.50;0.50;;;15.70;99.90;;;;;;4940205;29;20207;-63
2022/06/02 01:58:19;;;;;;;0.68;0.68;;;15.70;99.90;;;;;;4961948;28;20207;-62
2022/06/02 02:00:53;;;;;;;0.50;0.50;;;15.70;99.90;;;;;;4966637;28;20309;-63
2022/06/02 02:03:30;;;;;;;0.57;0.57;;;15.70;99.90;;;;;;5032468;28;20291;-63
2022/06/02 02:06:08;;;;;;;0.70;0.70;;;15.70;99.90;;;;;;5043377;28;20251;-65
2022/06/02 02:08:54;;;;;;;0.80;0.73;;;15.70;99.90;;;;;;5039907;28;20604;-63
2022/06/02 02:11:42;;;;;;;0.52;0.52;;;15.70;99.90;;;;;;5041350;28;20627;-63
2022/06/02 02:14:21;;;;;;;0.57;0.57;;;15.70;99.90;;;;;;5047155;28;20195;-63
2022/06/02 02:16:53;;;;;;;0.50;0.50;;;15.70;99.90;;;;;;5051902;28;20594;-63
2022/06/02 02:19:38;;;;;;;0.60;0.60;;;15.70;99.90;;;;;;5048075;28;20315;-62
2022/06/02 02:22:10;;;;;;;0.30;0.30;;;15.70;99.90;;;;;;5048026;28;20311;-62
2022/06/02 02:24:52;;;;;;;0.77;0.77;;;15.80;99.90;;;;;;5051374;28;20204;-62
2022/06/02 02:27:25;;;;;;;0.50;0.50;;;15.70;99.90;;;;;;5049999;28;20203;-61
2022/06/02 02:30:01;;;;;;;0.60;0.60;;;15.70;99.90;;;;;;5049462;28;20219;-63
2022/06/02 02:32:37;;;;;;;0.60;0.60;;;15.70;99.90;;;;;;5050756;28;21002;-63
2022/06/02 02:35:13;;;;;;;0.57;0.57;;;15.60;99.90;;;;;;5049228;28;20214;-63
2022/06/02 02:37:47;;;;;;;0.40;0.40;;;15.70;99.90;;;;;;5049990;28;20245;-63
2022/06/02 02:40:19;;;;;;;0.63;0.63;;;15.70;99.90;;;;;;5048151;28;20310;-62
2022/06/02 02:42:51;;;;;;;0.65;0.65;;;15.70;99.90;;;;;;5049399;28;20291;-62
2022/06/02 02:45:41;;;;;;;0.52;0.52;;;15.70;99.90;;;;;;5051119;28;20211;-62
2022/06/02 02:48:17;;;;;;;0.47;0.47;;;15.70;99.90;;;;;;5049020;28;20318;-62
2022/06/02 02:50:54;;;;;;;0.60;0.60;;;15.80;99.90;;;;;;5050772;28;20207;-61
2022/06/02 02:53:25;;;;;;;0.52;0.52;;;15.80;99.90;;;;;;5043491;28;20664;-61
2022/06/02 02:55:57;;;;;;;0.50;0.50;;;15.70;99.90;;;;;;5041723;28;20223;-62
2022/06/02 02:58:35;;;;;;;0.50;0.50;;;15.80;99.90;;;;;;5038991;28;20263;-63
2022/06/02 03:01:08;;;;;;;0.60;0.60;;;15.90;99.90;;;;;;5038758;28;20227;-62
2022/06/02 03:03:40;;;;;;;0.50;0.50;;;16.00;99.90;;;;;;5038059;28;20216;-61
2022/06/02 03:06:24;;;;;;;0.60;0.60;;;16.10;99.90;;;;;;5054780;28;20640;-62
2022/06/02 03:08:58;;;;;;;0.60;0.60;;;16.00;99.90;;;;;;5039770;28;20311;-62
2022/06/02 03:11:40;;;;;;;0.60;0.60;;;15.90;99.90;;;;;;5038783;28;20290;-62
2022/06/02 03:14:19;;;;;;;0.55;0.55;;;16.00;99.90;;;;;;5041683;28;20298;-62
2022/06/02 03:16:51;;;;;;;0.60;0.60;;;15.90;99.90;;;;;;5036275;28;20271;-61
2022/06/02 03:19:24;;;;;;;0.50;0.50;;;15.70;99.90;;;;;;5042521;28;20224;-62
2022/06/02 03:21:58;;;;;;;0.47;0.47;;;15.70;99.90;;;;;;5041112;28;20214;-63
2022/06/02 03:24:47;;;;;;;0.60;0.60;;;15.70;99.90;;;;;;5040546;28;20195;-63
2022/06/02 03:27:23;;;;;;;0.47;0.47;;;15.60;99.90;;;;;;5042583;28;20295;-62
2022/06/02 03:30:00;;;;;;;0.50;0.50;;;15.60;99.90;;;;;;5043628;28;20216;-64
2022/06/02 03:32:48;;;;;;;0.52;0.52;;;15.50;99.90;;;;;;5043167;28;20253;-63
2022/06/02 03:35:27;;;;;;;0.60;0.60;;;15.60;99.90;;;;;;5054073;28;20228;-63
2022/06/02 03:38:06;;;;;;;0.60;0.60;;;15.60;99.90;;;;;;5054452;28;20216;-63
2022/06/02 03:41:05;;;;;;;0.40;0.40;;;15.60;99.90;;;;;;5046185;28;20224;-62
2022/06/02 03:43:43;;;;;;;0.50;0.50;;;15.70;99.90;;;;;;5047530;28;20236;-62
2022/06/02 03:46:20;;;;;;;0.50;0.50;;;15.70;99.90;;;;;;5041264;28;20196;-64
2022/06/02 03:49:09;;;;;;;0.70;0.70;;;15.70;99.90;;;;;;5044816;28;20231;-62
2022/06/02 03:51:43;;;;;;;0.60;0.60;;;15.70;99.90;;;;;;5045580;28;20270;-62
2022/06/02 03:54:31;;;;;;;0.70;0.70;;;15.60;99.90;;;;;;5054044;28;20207;-64
2022/06/02 03:57:14;;;;;;;0.40;0.40;;;15.50;99.90;;;;;;5046544;28;20215;-63
2022/06/02 03:59:57;;;;;;;0.40;0.40;;;15.50;99.90;;;;;;5046059;28;20319;-62
2022/06/02 04:02:29;;;;;;;0.60;0.60;;;15.50;99.90;;;;;;5049454;28;20242;-65
2022/06/02 04:05:08;;;;;;;0.50;0.50;;;15.50;99.90;;;;;;5047200;28;20200;-63
2022/06/02 04:07:40;;;;;;;0.50;0.50;;;15.40;99.90;;;;;;5045601;28;20223;-60
2022/06/02 04:10:19;;;;;;;0.50;0.50;;;15.40;99.90;;;;;;5045563;28;20244;-63
2022/06/02 04:16:08;;;;;;;0.60;0.60;;;15.40;99.90;;;;;;5042306;28;20223;-61
2022/06/02 04:18:52;;;;;;;0.40;0.40;;;15.30;99.90;;;;;;5042483;28;20407;-62
2022/06/02 04:21:36;;;;;;;0.57;0.57;;;15.40;99.90;;;;;;5043456;28;20216;-62
2022/06/02 04:24:18;;;;;;;0.50;0.50;;;15.30;99.90;;;;;;5038225;28;20314;-62
2022/06/02 04:26:57;;;;;;;0.55;0.55;;;15.60;99.90;;;;;;5049006;28;20231;-64
2022/06/02 04:29:46;;;;;;;0.40;0.40;;;15.50;99.90;;;;;;5040260;28;20243;-62
2022/06/02 04:32:23;;;;;;;0.60;0.60;;;15.60;99.90;;;;;;5046394;28;20212;-62
2022/06/02 04:34:59;;;;;;;0.40;0.40;;;15.60;99.90;;;;;;5049835;28;20238;-63
2022/06/02 04:37:37;;;;;;;0.55;0.55;;;15.60;99.90;;;;;;5054819;28;20282;-62
2022/06/02 04:40:14;;;;;;;0.68;0.68;;;15.70;99.90;;;;;;5052660;28;20262;-62
2022/06/02 04:42:56;;;;;;;0.43;0.43;;;15.60;99.90;;;;;;5054690;28;20218;-62
2022/06/02 04:45:33;;;;;;;0.60;0.60;;;15.70;99.90;;;;;;5047812;28;20202;-62
2022/06/02 04:48:10;;;;;;;0.60;0.60;;;15.70;99.90;;;;;;5051816;28;20206;-63
2022/06/02 04:50:44;;;;;;;0.60;0.60;;;15.70;99.90;;;;;;5051128;28;20204;-62
2022/06/02 04:53:19;;;;;;;0.60;0.60;;;15.80;99.90;;;;;;5051994;28;20241;-61
2022/06/02 04:55:59;;;;;;;0.60;0.60;;;15.80;99.90;;;;;;5048213;28;20204;-63
2022/06/02 04:58:33;;;;;;;0.80;0.80;;;15.80;99.90;;;;;;5052085;28;20231;-62
2022/06/02 05:01:05;;;;;;;0.85;0.82;;;15.90;99.90;;;;;;5051226;28;20250;-64
2022/06/02 05:03:43;;;;;;;1.02;1.02;;;15.90;99.90;;;;;;5052068;28;20725;-61
2022/06/02 05:06:17;;;;;;;0.90;0.90;;;16.00;99.90;;;;;;5048672;28;20287;-62
2022/06/02 05:09:05;;;;;;;1.00;1.00;;;16.00;99.90;;;;;;5050880;28;20228;-61
2022/06/02 05:11:52;;;;;;;0.80;0.80;;;16.10;99.90;;;;;;5050479;28;20199;-61
2022/06/02 05:14:32;;;;;;;0.65;0.65;;;16.20;99.90;;;;;;5042274;28;20227;-62
2022/06/02 05:17:17;;;;;;;0.60;0.60;;;16.50;99.90;;;;;;5046616;28;20291;-63
2022/06/02 05:20:18;;;;;;;0.70;0.70;;;16.70;99.90;;;;;;5042040;28;20323;-61
2022/06/02 05:23:12;;;;;;;0.50;0.50;;;17.00;99.90;;;;;;5050056;28;20286;-63
2022/06/02 05:26:05;;;;;;;0.50;0.50;;;17.20;99.90;;;;;;5048926;28;20738;-62
2022/06/02 05:29:20;;;;;;;0.50;0.50;;;17.50;99.90;;;;;;5049170;28;20327;-62
2022/06/02 05:32:00;;;;;;;0.60;0.60;;;17.80;99.90;;;;;;5049782;28;20228;-61
2022/06/02 05:35:00;;;;;;;0.73;0.73;;;17.80;99.90;;;;;;5052168;28;20230;-61
2022/06/02 05:37:45;;;;;;;0.60;0.60;;;17.70;99.90;;;;;;5037806;28;20246;-63
2022/06/02 05:40:23;;;;;;;1.27;0.80;;;17.80;99.90;;;;;;5049695;28;20239;-63
2022/06/02 05:43:03;;;;;;;0.80;0.80;;;17.80;99.90;;;;;;5053729;28;20288;-62
2022/06/02 05:45:44;;;;;;;0.60;0.60;;;18.10;99.90;;;;;;5051279;28;20689;-63
2022/06/02 05:48:30;;;;;;;1.30;0.90;;;18.30;99.90;;;;;;5052398;28;20224;-61
2022/06/02 05:51:02;;;;;;;0.73;0.73;;;18.50;99.90;;;;;;5100780;22;20707;-62
2022/06/02 05:53:47;;;;;;;1.00;1.00;;;18.50;99.90;;;;;;5108446;28;20281;-61
2022/06/02 05:56:26;;;;;;;0.98;0.98;;;18.60;99.90;;;;;;5111608;28;20247;-62
2022/06/02 05:59:21;;;;;;;0.82;0.82;;;18.70;99.90;;;;;;5113311;28;20258;-61
2022/06/02 06:02:03;;;;;;;0.60;0.60;;;18.80;99.90;;;;;;5098960;28;20219;-62
2022/06/02 06:04:57;;;;;;;0.90;0.90;;;18.90;99.90;;;;;;5090685;28;20725;-62
2022/06/02 06:07:37;;;;;;;0.50;0.50;;;19.10;99.90;;;;;;5085190;28;20580;-61
2022/06/02 06:10:10;;;;;;;0.80;0.80;;;19.20;99.90;;;;;;5095965;28;20246;-61
2022/06/02 06:12:56;;;;;;;0.57;0.57;;;19.20;99.90;;;;;;5086448;28;20221;-62
2022/06/02 06:15:37;;;;;;;0.60;0.60;;;19.10;99.90;;;;;;5091320;28;20234;-62
2022/06/02 06:18:16;;;;;;;0.90;0.90;;;18.90;99.90;;;;;;5091564;28;20242;-62
2022/06/02 06:21:02;;;;;;;0.90;0.90;;;19.00;99.90;;;;;;5091357;28;20258;-60
2022/06/02 06:24:04;;;;;;;0.90;0.90;;;19.10;99.90;;;;;;5081892;28;20282;-62
2022/06/02 06:26:41;;;;;;;0.80;0.80;;;19.00;99.90;;;;;;5079703;28;20282;-62
2022/06/02 06:29:32;;;;;;;0.70;0.70;;;19.20;99.90;;;;;;5094898;28;20198;-61
2022/06/02 06:32:05;;;;;;;0.85;0.85;;;19.40;99.90;;;;;;5089513;28;20227;-62
2022/06/02 06:34:44;;;;;;;0.90;0.90;;;19.50;99.90;;;;;;5086046;28;20204;-63
2022/06/02 06:37:25;;;;;;;0.80;0.80;;;19.60;99.90;;;;;;5089604;28;20202;-63
2022/06/02 06:40:03;;;;;;;0.88;0.88;;;19.50;99.90;;;;;;5097654;28;20835;-62
2022/06/02 06:42:44;;;;;;;1.00;1.00;;;19.40;99.90;;;;;;5090932;28;20289;-64
2022/06/02 06:45:16;;;;;;;0.70;0.70;;;19.40;99.90;;;;;;5098799;28;20198;-62
2022/06/02 06:47:46;;;;;;;0.60;0.60;;;19.40;99.90;;;;;;5100784;28;20233;-62
2022/06/02 06:50:20;;;;;;;0.80;0.80;;;19.60;99.90;;;;;;5097788;28;20225;-62
2022/06/02 06:53:12;;;;;;;0.68;0.68;;;19.50;99.90;;;;;;5097946;28;20227;-61
2022/06/02 06:56:00;;;;;;;0.88;0.88;;;19.60;99.90;;;;;;5106016;28;20575;-63
2022/06/02 06:58:46;;;;;;;0.73;0.73;;;19.70;99.90;;;;;;5094373;28;20234;-63
2022/06/02 07:01:21;;;;;;;0.80;0.80;;;19.90;99.90;;;;;;5099192;28;20679;-63
2022/06/02 07:03:56;;;;;;;1.02;0.90;;;19.90;99.90;;;;;;5092565;28;20202;-62
2022/06/02 07:06:33;;;;;;;0.70;0.70;;;20.00;99.90;;;;;;5091394;28;20246;-62
2022/06/02 07:09:09;;;;;;;0.95;0.95;;;20.00;99.90;;;;;;5098444;28;20206;-63
2022/06/02 07:14:39;;;;;;;0.70;0.70;;;20.00;99.90;;;;;;5096054;28;20197;-62
2022/06/02 07:17:13;;;;;;;0.80;0.80;;;20.00;99.90;;;;;;5094737;28;20557;-63
2022/06/02 07:19:48;;;;;;;0.85;0.82;;;20.00;99.90;;;;;;5094749;28;20313;-61
2022/06/02 07:22:24;;;;;;;0.73;0.73;;;20.20;99.90;;;;;;5095523;28;20305;-61
2022/06/02 07:25:02;;;;;;;0.68;0.68;;;20.20;99.90;;;;;;5093996;28;20226;-63
2022/06/02 07:27:37;;;;;;;0.80;0.80;;;20.20;99.90;;;;;;5099092;28;20312;-61
2022/06/02 07:30:20;;;;;;;0.70;0.70;;;20.30;99.90;;;;;;5085748;28;20249;-61
2022/06/02 07:33:16;;;;;;;1.00;1.00;;;20.40;99.90;;;;;;5094775;28;20207;-62
2022/06/02 07:35:59;;;;;;;2.40;1.10;;;20.40;99.90;;;;;;5096632;28;20194;-61
2022/06/02 07:38:43;;;;;;;0.50;0.50;;;20.30;99.90;;;;;;5090659;28;20278;-61
2022/06/02 07:41:38;;;;;;;0.75;0.75;;;20.40;99.90;;;;;;5091885;28;20218;-62
2022/06/02 07:44:37;;;;;;;0.70;0.70;;;20.60;99.90;;;;;;5092454;28;20284;-62
2022/06/02 07:47:19;;;;;;;0.50;0.50;;;20.70;99.90;;;;;;5073994;28;20278;-61
2022/06/02 07:49:56;;;;;;;0.70;0.70;;;20.70;99.90;;;;;;5092734;28;20238;-61
2022/06/02 07:52:31;;;;;;;0.60;0.60;;;20.80;99.90;;;;;;5090570;28;20191;-61
2022/06/02 07:55:04;;;;;;;0.60;0.60;;;20.80;99.90;;;;;;5091612;28;20237;-62
2022/06/02 07:57:45;;;;;;;1.58;0.80;;;21.00;99.90;;;;;;5086920;28;20202;-61
2022/06/02 08:00:17;;;;;;;0.60;0.60;;;20.90;99.90;;;;;;5093469;28;20230;-61
2022/06/02 08:03:09;;;;;;;1.25;0.75;;;21.00;99.90;;;;;;5092906;28;20198;-61
2022/06/02 08:05:42;;;;;;;0.60;0.60;;;21.10;99.90;;;;;;5086631;28;20286;-61
2022/06/02 08:08:21;;;;;;;0.70;0.70;;;21.20;99.90;;;;;;5088945;28;20197;-61
2022/06/02 08:11:00;;;;;;;0.50;0.50;;;21.40;99.90;;;;;;5097406;28;20312;-63
2022/06/02 08:13:37;;;;;;;0.90;0.90;;;21.60;99.90;;;;;;5090993;28;20253;-63
2022/06/02 08:16:09;;;;;;;0.90;0.90;;;21.70;99.90;;;;;;5088600;28;20241;-61
2022/06/02 08:19:02;;;;;;;0.60;0.60;;;21.60;99.90;;;;;;5092331;28;20205;-61
2022/06/02 08:21:34;;;;;;;0.90;0.90;;;21.60;99.90;;;;;;5088931;28;20218;-61
2022/06/02 08:24:24;;;;;;;0.77;0.77;;;21.70;99.90;;;;;;5087918;28;20211;-61
2022/06/02 08:27:12;;;;;;;0.65;0.65;;;21.70;99.90;;;;;;5084576;28;20206;-63
2022/06/02 08:29:55;;;;;;;0.68;0.68;;;21.60;99.90;;;;;;5084807;28;20222;-63
2022/06/02 08:32:51;;;;;;;0.60;0.60;;;21.70;99.90;;;;;;5089470;28;20216;-63
2022/06/02 08:35:35;;;;;;;2.40;0.88;;;21.70;99.90;;;;;;5085462;28;20207;-63
2022/06/02 08:38:28;;;;;;;0.50;0.50;;;21.70;99.90;;;;;;5082979;28;20240;-63
2022/06/02 08:41:33;;;;;;;0.70;0.70;;;21.90;99.90;;;;;;5086923;28;20226;-61
2022/06/02 08:44:48;;;;;;;0.60;0.60;;;22.10;99.90;;;;;;5089119;28;20644;-62
2022/06/02 08:47:50;;;;;;;0.55;0.55;;;22.10;99.90;;;;;;5086118;28;20209;-62
2022/06/02 08:51:08;;;;;;;0.60;0.60;;;22.00;99.90;;;;;;5088524;28;20230;-61
2022/06/02 08:54:20;;;;;;;0.75;0.75;;;22.20;99.90;;;;;;5090721;28;20213;-62
2022/06/02 08:57:16;;;;;;;0.60;0.60;;;22.40;99.90;;;;;;5032120;28;20295;-61
2022/06/02 09:00:29;;;;;;;0.50;0.50;;;22.50;99.90;;;;;;5031720;28;20260;-61
2022/06/02 09:03:33;;;;;;;0.60;0.60;;;22.50;99.90;;;;;;5030214;28;20224;-62
2022/06/02 09:06:41;;;;;;;0.60;0.60;;;22.60;99.90;;;;;;5031300;28;20208;-63
2022/06/02 09:09:58;;;;;;;0.70;0.70;;;22.70;99.90;;;;;;5032513;28;20207;-63
2022/06/02 09:12:52;;;;;;;0.70;0.70;;;22.50;99.90;;;;;;5034594;28;20399;-63
2022/06/02 09:15:49;;;;;;;0.60;0.60;;;22.70;99.90;;;;;;5025684;28;20212;-63
2022/06/02 09:18:19;;;;;;;0.70;0.70;;;22.90;99.90;;;;;;5003721;28;20209;-62
2022/06/02 09:20:55;;;;;;;0.65;0.65;;;22.90;99.90;;;;;;5029062;28;20336;-62
2022/06/02 09:23:48;;;;;;;0.85;0.60;;;22.80;99.90;;;;;;5025951;28;20201;-63
2022/06/02 09:26:47;;;;;;;0.70;0.70;;;23.10;99.90;;;;;;5020404;28;20205;-62
2022/06/02 09:29:24;;;;;;;0.80;0.80;;;23.30;99.90;;;;;;5029244;28;20259;-63
2022/06/02 09:32:16;;;;;;;0.70;0.70;;;23.30;99.90;;;;;;5038644;28;20227;-63
2022/06/02 09:34:55;;;;;;;0.57;0.57;;;23.50;99.90;;;;;;5081990;28;20286;-62
2022/06/02 09:37:53;;;;;;;0.60;0.60;;;23.50;99.90;;;;;;5096200;28;20232;-61
2022/06/02 09:40:43;;;;;;;0.63;0.63;;;23.70;99.90;;;;;;5090678;28;20245;-62
2022/06/02 09:43:45;;;;;;;0.70;0.70;;;23.70;99.90;;;;;;5091668;28;20206;-61
2022/06/02 09:46:35;;;;;;;0.57;0.57;;;23.70;99.90;;;;;;5102326;28;20739;-62
2022/06/02 09:49:17;;;;;;;0.60;0.60;;;23.70;99.90;;;;;;5098154;28;20202;-61
2022/06/02 09:51:55;;;;;;;0.60;0.60;;;23.90;99.90;;;;;;5092234;28;20213;-62
2022/06/02 09:54:36;;;;;;;0.68;0.68;;;23.90;99.90;;;;;;5089640;28;20202;-61
2022/06/02 10:00:43;;;;;;;0.60;0.60;;;23.70;99.90;;;;;;5090306;28;20248;-62
2022/06/02 10:03:33;;;;;;;0.60;0.60;;;23.70;99.90;;;;;;5100420;28;20209;-63
2022/06/02 10:06:11;;;;;;;0.73;0.73;;;23.70;99.90;;;;;;5085994;28;20208;-61
2022/06/02 10:08:54;;;;;;;0.60;0.60;;;23.90;99.90;;;;;;5088047;28;20214;-62
2022/06/02 10:11:30;;;;;;;0.60;0.60;;;24.10;99.90;;;;;;5090422;28;20215;-62
2022/06/02 10:14:29;;;;;;;0.95;0.88;;;24.10;99.90;;;;;;5101202;28;20198;-61
2022/06/02 10:17:20;;;;;;;0.65;0.65;;;24.10;99.90;;;;;;5095284;28;20562;-61
2022/06/02 10:20:09;;;;;;;0.60;0.60;;;24.20;99.90;;;;;;5089416;28;20261;-61
2022/06/02 10:22:47;;;;;;;0.70;0.70;;;24.20;99.90;;;;;;5091840;28;20206;-61
2022/06/02 10:25:31;;;;;;;0.60;0.60;;;24.30;99.90;;;;;;5091112;28;20731;-63
2022/06/02 10:28:38;;;;;;;0.57;0.57;;;24.50;99.90;;;;;;5087805;28;20205;-61
2022/06/02 10:31:44;;;;;;;1.02;0.80;;;24.50;99.90;;;;;;5087951;28;20329;-61
2022/06/02 10:34:59;;;;;;;0.70;0.70;;;24.60;99.90;;;;;;5081657;28;20210;-61
2022/06/02 10:37:50;;;;;;;2.05;1.00;;;24.80;99.90;;;;;;5077332;28;20729;-63
2022/06/02 10:40:39;;;;;;;0.70;0.70;;;24.60;99.90;;;;;;5078934;28;20231;-61
2022/06/02 10:43:51;;;;;;;0.60;0.60;;;24.60;99.90;;;;;;5092990;28;20206;-61
2022/06/02 10:47:04;;;;;;;0.57;0.57;;;24.80;99.90;;;;;;5091969;28;20224;-62
2022/06/02 10:49:39;;;;;;;0.80;0.80;;;25.00;99.90;;;;;;5091267;28;20287;-61
2022/06/02 10:52:45;;;;;;;0.47;0.47;;;24.80;99.90;;;;;;5094074;28;20649;-63
2022/06/02 10:55:45;;;;;;;0.50;0.50;;;24.80;99.90;;;;;;5092980;28;20240;-63
2022/06/02 10:58:50;;;;;;;0.70;0.70;;;24.70;99.90;;;;;;5082436;28;20208;-63
2022/06/02 11:02:13;;;;;;;0.65;0.63;;;24.80;99.90;;;;;;5087974;28;20312;-62
2022/06/02 11:05:16;;;;;;;1.75;0.90;;;24.90;99.90;;;;;;5066203;28;20206;-63
2022/06/02 11:08:28;;;;;;;0.65;0.65;;;24.80;99.90;;;;;;5090162;28;20202;-61
2022/06/02 11:11:23;;;;;;;0.60;0.60;;;24.80;99.90;;;;;;5061691;28;20226;-61
2022/06/02 11:14:41;;;;;;;0.80;0.80;;;24.60;99.90;;;;;;5085482;28;20286;-61
2022/06/02 11:17:50;;;;;;;0.65;0.63;;;24.70;99.90;;;;;;5078241;28;20248;-62
2022/06/02 11:20:42;;;;;;;0.60;0.60;;;24.90;99.90;;;;;;5080626;28;20219;-62
2022/06/02 11:23:31;;;;;;;0.63;0.55;;;25.00;99.90;;;;;;5081812;28;20228;-61
2022/06/02 11:26:33;;;;;;;0.68;0.65;;;25.00;99.90;;;;;;5084822;28;20205;-62
2022/06/02 11:29:40;;;;;;;0.50;0.50;;;24.80;99.90;;;;;;5085559;28;20205;-61
2022/06/02 11:32:33;;;;;;;1.85;0.80;;;24.70;99.90;;;;;;5088555;28;20213;-60
2022/06/02 11:35:33;;;;;;;1.05;1.00;;;24.70;99.90;;;;;;5086660;28;20237;-61
2022/06/02 11:38:32;;;;;;;1.00;0.70;;;24.70;99.90;;;;;;5083778;28;20214;-62
2022/06/02 11:41:28;;;;;;;1.02;0.80;;;24.50;99.90;;;;;;5081999;28;20222;-63
2022/06/02 11:44:07;;;;;;;0.70;0.70;;;24.50;99.90;;;;;;5091109;28;20201;-61
2022/06/02 11:47:08;;;;;;;0.70;0.70;;;24.60;99.90;;;;;;5094362;28;20295;-61
2022/06/02 11:50:11;;;;;;;0.50;0.50;;;24.50;99.90;;;;;;5093491;28;20230;-64
2022/06/02 11:53:27;;;;;;;1.63;0.70;;;24.60;99.90;;;;;;5091351;22;20227;-65
2022/06/02 11:55:58;;;;;;;0.60;0.60;;;24.40;99.90;;;;;;5068232;28;20196;-66
2022/06/02 11:58:59;;;;;;;0.63;0.63;;;24.40;99.90;;;;;;5074898;28;20204;-67
2022/06/02 12:01:47;;;;;;;0.50;0.50;;;24.60;99.90;;;;;;5074960;28;20233;-65
2022/06/02 12:04:44;;;;;;;0.70;0.70;;;24.60;99.90;;;;;;5065466;28;20658;-65
2022/06/02 12:08:07;;;;;;;0.60;0.60;;;24.80;99.90;;;;;;5073344;28;20323;-67
2022/06/02 12:11:23;;;;;;;0.70;0.70;;;25.10;99.90;;;;;;4985962;28;20207;-67
2022/06/02 12:14:13;;;;;;;0.88;0.57;;;25.10;99.90;;;;;;5069416;28;20307;-65
2022/06/02 12:16:59;;;;;;;0.63;0.63;;;25.10;99.90;;;;;;5064029;28;20244;-67
2022/06/02 12:20:14;;;;;;;0.70;0.70;;;25.20;99.90;;;;;;5069189;28;20238;-64
2022/06/02 12:23:23;;;;;;;0.63;0.63;;;25.10;99.90;;;;;;5009915;28;20233;-65
2022/06/02 12:26:01;;;;;;;0.70;0.70;;;25.20;99.90;;;;;;4995745;28;20218;-66
2022/06/02 12:28:53;;;;;;;0.63;0.63;;;25.10;99.90;;;;;;4992124;28;20974;-65
2022/06/02 12:32:02;;;;;;;1.15;0.80;;;25.10;99.90;;;;;;4983663;28;20216;-65
2022/06/02 12:35:07;;;;;;;0.40;0.40;;;25.00;99.90;;;;;;4989960;28;20214;-66
2022/06/02 12:38:05;;;;;;;0.60;0.60;;;25.10;99.90;;;;;;4991419;28;20244;-64
2022/06/02 12:40:44;;;;;;;0.63;0.63;;;25.20;99.90;;;;;;4989855;28;20619;-65
2022/06/02 12:43:52;;;;;;;0.70;0.70;;;25.20;99.90;;;;;;4986635;28;20232;-67
2022/06/02 12:46:41;;;;;;;0.60;0.60;;;25.20;99.90;;;;;;4996593;28;20206;-66
2022/06/02 12:49:44;;;;;;;1.15;0.73;;;25.30;99.90;;;;;;4986205;28;20296;-64
2022/06/02 12:52:43;;;;;;;0.73;0.73;;;25.40;99.90;;;;;;4987399;28;20652;-65
2022/06/02 12:55:35;;;;;;;0.47;0.47;;;25.40;99.90;;;;;;4959966;28;20282;-66
2022/06/02 12:58:37;;;;;;;0.70;0.70;;;25.30;99.90;;;;;;5079961;28;20580;-66
2022/06/02 13:01:13;;;;;;;0.80;0.80;;;25.30;99.90;;;;;;5076281;28;20225;-66
2022/06/02 13:04:25;;;;;;;0.70;0.70;;;25.10;99.90;;;;;;5070304;28;20321;-66
2022/06/02 13:07:14;;;;;;;0.80;0.80;;;24.90;99.90;;;;;;5032734;28;20275;-66
2022/06/02 13:10:15;;;;;;;0.60;0.60;;;24.70;99.90;;;;;;5076192;28;20290;-66
2022/06/02 13:13:30;;;;;;;0.80;0.80;;;24.50;99.90;;;;;;5087739;28;20253;-65
2022/06/02 13:16:18;;;;;;;0.50;0.50;;;24.40;99.90;;;;;;5078690;28;20195;-67
2022/06/02 13:19:14;;;;;;;3.00;0.88;;;24.50;99.90;;;;;;5078144;28;20199;-66
2022/06/02 13:22:11;;;;;;;0.30;0.30;;;24.50;99.90;;;;;;5073283;28;20322;-67
2022/06/02 13:25:32;;;;;;;0.80;0.80;;;24.60;99.90;;;;;;5073695;28;20202;-66
2022/06/02 13:28:25;;;;;;;0.63;0.63;;;24.40;99.90;;;;;;4978405;28;20206;-65
2022/06/02 13:31:21;;;;;;;0.52;0.52;;;24.40;99.90;;;;;;5073312;28;20282;-65
2022/06/02 13:34:16;;;;;;;0.70;0.70;;;24.40;99.90;;;;;;5078472;28;20195;-66
2022/06/02 13:37:09;;;;;;;0.60;0.60;;;24.30;99.90;;;;;;5016900;28;20289;-66
2022/06/02 13:40:03;;;;;;;0.52;0.52;;;24.10;99.90;;;;;;5073697;28;20299;-67
2022/06/02 13:43:10;;;;;;;0.77;0.77;;;24.00;99.90;;;;;;5066895;28;20356;-67
2022/06/02 13:46:06;;;;;;;0.60;0.60;;;24.00;99.90;;;;;;5047235;28;20217;-67
2022/06/02 13:49:19;;;;;;;0.50;0.50;;;24.00;99.90;;;;;;5065995;28;20225;-65
2022/06/02 13:52:13;;;;;;;0.82;0.82;;;23.90;99.90;;;;;;5061195;28;20258;-66
2022/06/02 13:58:10;;;;;;;1.00;0.70;;;23.50;99.90;;;;;;5062471;28;20248;-66
2022/06/02 14:01:00;;;;;;;0.68;0.68;;;23.40;99.90;;;;;;5067621;28;20231;-65
2022/06/02 14:03:55;;;;;;;0.50;0.50;;;23.50;99.90;;;;;;5061455;28;20645;-68
2022/06/02 14:06:24;;;;;;;0.90;0.90;;;23.60;99.90;;;;;;5064211;28;20199;-65
2022/06/02 14:09:28;;;;;;;0.70;0.70;;;23.60;99.90;;;;;;5062687;28;20253;-65
2022/06/02 14:12:05;;;;;;;0.80;0.80;;;23.60;99.90;;;;;;5063089;28;20276;-67
2022/06/02 14:15:15;;;;;;;0.55;0.50;;;23.60;99.90;;;;;;5064144;28;20198;-65
2022/06/02 14:18:15;;;;;;;1.00;0.65;;;23.80;99.90;;;;;;5069638;28;20199;-65
2022/06/02 14:20:54;;;;;;;0.60;0.60;;;24.00;99.90;;;;;;5068847;28;20282;-65
2022/06/02 14:23:38;;;;;;;0.43;0.43;;;24.00;99.90;;;;;;5072577;28;20226;-67
2022/06/02 14:26:20;;;;;;;0.60;0.60;;;24.00;99.90;;;;;;5063739;28;20238;-65
2022/06/02 14:28:56;;;;;;;0.52;0.52;;;23.90;99.90;;;;;;5063431;28;20199;-65
2022/06/02 14:31:32;;;;;;;0.55;0.55;;;24.20;99.90;;;;;;5067589;28;20222;-67
2022/06/02 14:34:07;;;;;;;0.60;0.60;;;24.40;99.90;;;;;;5069816;28;20601;-65
2022/06/02 14:36:45;;;;;;;0.73;0.73;;;24.70;99.90;;;;;;5065248;28;20198;-67
2022/06/02 14:39:25;;;;;;;0.43;0.43;;;24.80;99.90;;;;;;5064485;28;20278;-68
2022/06/02 14:42:04;;;;;;;0.60;0.60;;;25.00;99.90;;;;;;5071827;28;20224;-66